createdAt,value
2017-05-12T00:00:46.701Z,0
2017-05-12T00:01:56.958Z,0
2017-05-12T00:03:07.219Z,0
2017-05-12T00:04:17.416Z,0
2017-05-12T00:05:27.668Z,0
2017-05-12T00:06:37.617Z,0
2017-05-12T00:07:47.874Z,0
2017-05-12T00:08:58.146Z,0
2017-05-12T00:10:10.350Z,0
2017-05-12T00:11:20.612Z,0
2017-05-12T00:12:30.879Z,0
2017-05-12T00:13:41.155Z,0
2017-05-12T00:14:51.411Z,0
2017-05-12T00:16:01.292Z,0
2017-05-12T00:17:11.552Z,0
2017-05-12T00:18:21.811Z,0
2017-05-12T00:19:32.074Z,0
2017-05-12T00:20:42.020Z,0
2017-05-12T00:21:52.488Z,0
2017-05-12T00:23:02.757Z,0
2017-05-12T00:24:13.029Z,0
2017-05-12T00:25:23.285Z,0
2017-05-12T00:26:33.547Z,0
2017-05-12T00:27:44.156Z,0
2017-05-12T00:28:54.422Z,0
2017-05-12T00:30:04.684Z,0
2017-05-12T00:31:14.625Z,0
2017-05-12T00:32:24.882Z,0
2017-05-12T00:33:35.350Z,0
2017-05-12T00:34:45.609Z,0
2017-05-12T00:35:55.866Z,0
2017-05-12T00:37:06.123Z,0
2017-05-12T00:38:16.078Z,0
2017-05-12T00:39:26.645Z,0
2017-05-12T00:40:36.908Z,0
2017-05-12T00:41:47.184Z,0
2017-05-12T00:42:57.443Z,0
2017-05-12T00:44:07.766Z,0
2017-05-12T00:45:17.967Z,0
2017-05-12T00:46:27.915Z,0
2017-05-12T00:47:38.180Z,0
2017-05-12T00:48:48.439Z,0
2017-05-12T00:49:58.743Z,0
2017-05-12T00:51:08.942Z,0
2017-05-12T00:52:19.204Z,0
2017-05-12T00:53:29.145Z,0
2017-05-12T00:54:39.409Z,0
2017-05-12T00:55:49.357Z,0
2017-05-12T00:56:59.815Z,0
2017-05-12T00:58:09.443Z,0
2017-05-12T00:59:19.709Z,0
2017-05-12T01:00:29.964Z,0
2017-05-12T01:01:40.230Z,0
2017-05-12T01:02:52.749Z,0
2017-05-12T01:04:03.017Z,0
2017-05-12T01:05:13.284Z,0
2017-05-12T01:06:23.231Z,0
2017-05-12T01:07:33.179Z,0
2017-05-12T01:08:43.435Z,0
2017-05-12T01:09:53.702Z,0
2017-05-12T01:11:03.966Z,0
2017-05-12T01:12:14.226Z,0
2017-05-12T01:13:24.174Z,0
2017-05-12T01:14:34.692Z,0
2017-05-12T01:15:44.955Z,0
2017-05-12T01:16:54.894Z,0
2017-05-12T01:18:04.536Z,0
2017-05-12T01:19:14.798Z,0
2017-05-12T01:20:25.358Z,0
2017-05-12T01:21:35.306Z,0
2017-05-12T01:22:45.567Z,0
2017-05-12T01:23:55.827Z,0
2017-05-12T01:25:06.087Z,0
2017-05-12T01:26:16.606Z,0
2017-05-12T01:27:26.868Z,0
2017-05-12T01:28:37.136Z,0
2017-05-12T01:29:47.087Z,0
2017-05-12T01:30:57.350Z,0
2017-05-12T01:32:09.925Z,0
2017-05-12T01:33:20.187Z,0
2017-05-12T01:34:30.443Z,0
2017-05-12T01:35:40.701Z,0
2017-05-12T01:36:50.961Z,0
2017-05-12T01:38:01.422Z,0
2017-05-12T01:39:11.687Z,0
2017-05-12T01:40:21.940Z,0
2017-05-12T01:41:31.885Z,0
2017-05-12T01:42:42.144Z,0
2017-05-12T01:43:52.709Z,4
2017-05-12T01:45:02.967Z,4
2017-05-12T01:46:12.913Z,4
2017-05-12T01:47:23.185Z,4
2017-05-12T01:48:33.449Z,0
2017-05-12T01:49:43.957Z,0
2017-05-12T01:50:54.224Z,4
2017-05-12T01:52:04.485Z,4
2017-05-12T01:53:14.752Z,4
2017-05-12T01:54:25.009Z,4
2017-05-12T01:55:34.949Z,4
2017-05-12T01:56:45.211Z,4
2017-05-12T01:57:55.478Z,4
2017-05-12T01:59:05.740Z,4
2017-05-12T02:00:15.378Z,4
2017-05-12T02:01:25.828Z,8
2017-05-12T02:02:36.108Z,4
2017-05-12T02:03:46.376Z,8
2017-05-12T02:04:56.639Z,8
2017-05-12T02:06:06.905Z,8
2017-05-12T02:07:17.464Z,8
2017-05-12T02:08:27.427Z,12
2017-05-12T02:09:37.689Z,12
2017-05-12T02:10:47.949Z,16
2017-05-12T02:11:58.208Z,16
2017-05-12T02:13:08.359Z,16
2017-05-12T02:14:18.361Z,16
2017-05-12T02:15:28.628Z,20
2017-05-12T02:16:38.890Z,20
2017-05-12T02:17:48.828Z,20
2017-05-12T02:18:59.389Z,20
2017-05-12T02:20:09.330Z,28
2017-05-12T02:21:19.588Z,28
2017-05-12T02:22:29.538Z,28
2017-05-12T02:23:39.797Z,32
2017-05-12T02:24:50.265Z,36
2017-05-12T02:26:00.528Z,36
2017-05-12T02:27:10.157Z,40
2017-05-12T02:28:20.416Z,44
2017-05-12T02:29:30.673Z,44
2017-05-12T02:30:41.233Z,48
2017-05-12T02:31:51.492Z,52
2017-05-12T02:33:01.454Z,56
2017-05-12T02:34:11.080Z,60
2017-05-12T02:35:21.349Z,64
2017-05-12T02:36:31.911Z,64
2017-05-12T02:37:42.174Z,72
2017-05-12T02:38:52.430Z,76
2017-05-12T02:40:02.693Z,84
2017-05-12T02:41:12.671Z,84
2017-05-12T02:42:23.274Z,92
2017-05-12T02:43:33.531Z,100
2017-05-12T02:44:43.784Z,100
2017-05-12T02:45:54.043Z,108
2017-05-12T02:47:03.989Z,112
2017-05-12T02:48:13.972Z,116
2017-05-12T02:49:24.235Z,120
2017-05-12T02:50:34.184Z,124
2017-05-12T02:51:44.443Z,128
2017-05-12T02:52:54.706Z,136
2017-05-12T02:54:05.272Z,140
2017-05-12T02:55:15.531Z,144
2017-05-12T02:56:25.790Z,148
2017-05-12T02:57:36.066Z,156
2017-05-12T02:58:46.332Z,164
2017-05-12T02:59:56.852Z,172
2017-05-12T03:01:06.494Z,184
2017-05-12T03:02:16.807Z,192
2017-05-12T03:03:26.749Z,204
2017-05-12T03:04:36.751Z,212
2017-05-12T03:05:49.313Z,220
2017-05-12T03:06:59.255Z,232
2017-05-12T03:08:09.517Z,244
2017-05-12T03:09:19.785Z,260
2017-05-12T03:10:30.050Z,280
2017-05-12T03:11:40.558Z,296
2017-05-12T03:12:50.850Z,304
2017-05-12T03:14:01.107Z,320
2017-05-12T03:15:11.368Z,332
2017-05-12T03:16:21.619Z,340
2017-05-12T03:17:32.094Z,340
2017-05-12T03:18:42.356Z,340
2017-05-12T03:19:52.307Z,344
2017-05-12T03:21:02.573Z,352
2017-05-12T03:22:12.842Z,360
2017-05-12T03:23:23.407Z,372
2017-05-12T03:24:33.359Z,384
2017-05-12T03:25:43.618Z,404
2017-05-12T03:26:53.875Z,424
2017-05-12T03:28:04.143Z,436
2017-05-12T03:29:14.345Z,456
2017-05-12T03:30:24.607Z,476
2017-05-12T03:31:34.864Z,496
2017-05-12T03:32:44.814Z,512
2017-05-12T03:33:55.113Z,528
2017-05-12T03:35:05.680Z,548
2017-05-12T03:36:15.955Z,560
2017-05-12T03:37:26.206Z,576
2017-05-12T03:38:36.152Z,596
2017-05-12T03:39:46.414Z,608
2017-05-12T03:40:56.982Z,628
2017-05-12T03:42:06.607Z,648
2017-05-12T03:43:16.278Z,676
2017-05-12T03:44:26.550Z,704
2017-05-12T03:45:36.500Z,732
2017-05-12T03:46:47.114Z,764
2017-05-12T03:47:57.065Z,800
2017-05-12T03:49:06.699Z,852
2017-05-12T03:50:16.955Z,920
2017-05-12T03:51:27.221Z,996
2017-05-12T03:52:37.739Z,1080
2017-05-12T03:53:48.001Z,1180
2017-05-12T03:54:58.264Z,1280
2017-05-12T03:56:08.218Z,1348
2017-05-12T03:57:18.163Z,1352
2017-05-12T03:58:28.409Z,1348
2017-05-12T03:59:38.679Z,1340
2017-05-12T04:00:48.629Z,1344
2017-05-12T04:01:58.900Z,1372
2017-05-12T04:03:09.166Z,1444
2017-05-12T04:04:19.723Z,1516
2017-05-12T04:05:29.670Z,1552
2017-05-12T04:06:39.619Z,1584
2017-05-12T04:07:49.896Z,1608
2017-05-12T04:09:00.169Z,1592
2017-05-12T04:10:12.629Z,1624
2017-05-12T04:11:22.887Z,1740
2017-05-12T04:12:32.829Z,1876
2017-05-12T04:13:43.096Z,1952
2017-05-12T04:14:53.398Z,1924
2017-05-12T04:16:03.955Z,1928
2017-05-12T04:17:14.229Z,2020
2017-05-12T04:18:24.491Z,2148
2017-05-12T04:19:34.439Z,2276
2017-05-12T04:20:44.702Z,2416
2017-05-12T04:21:55.205Z,2420
2017-05-12T04:23:05.506Z,2420
2017-05-12T04:24:14.825Z,2444
2017-05-12T04:25:25.083Z,2420
2017-05-12T04:26:35.065Z,2404
2017-05-12T04:27:47.259Z,2408
2017-05-12T04:28:57.530Z,2416
2017-05-12T04:30:07.489Z,2448
2017-05-12T04:31:17.766Z,2472
2017-05-12T04:32:28.021Z,2484
2017-05-12T04:33:37.960Z,2556
2017-05-12T04:34:48.224Z,2664
2017-05-12T04:35:58.492Z,2812
2017-05-12T04:37:08.447Z,2972
2017-05-12T04:38:18.706Z,3136
2017-05-12T04:39:29.274Z,3272
2017-05-12T04:40:39.533Z,3368
2017-05-12T04:41:49.480Z,3424
2017-05-12T04:42:59.736Z,3396
2017-05-12T04:44:10.000Z,3348
2017-05-12T04:45:20.203Z,3336
2017-05-12T04:46:30.474Z,3316
2017-05-12T04:47:40.424Z,3300
2017-05-12T04:48:50.690Z,3280
2017-05-12T04:50:00.948Z,3256
2017-05-12T04:51:10.877Z,3220
2017-05-12T04:52:21.138Z,3172
2017-05-12T04:53:30.768Z,3116
2017-05-12T04:54:41.034Z,3048
2017-05-12T04:55:51.296Z,3012
2017-05-12T04:57:01.500Z,3004
2017-05-12T04:58:11.764Z,3040
2017-05-12T04:59:22.023Z,3032
2017-05-12T05:00:32.320Z,3052
2017-05-12T05:01:42.581Z,3076
2017-05-12T05:02:53.053Z,3132
2017-05-12T05:04:03.012Z,3212
2017-05-12T05:05:13.268Z,3288
2017-05-12T05:06:23.525Z,3396
2017-05-12T05:07:33.472Z,3532
2017-05-12T05:08:43.725Z,3684
2017-05-12T05:09:53.988Z,3756
2017-05-12T05:11:04.244Z,3828
2017-05-12T05:12:13.875Z,3896
2017-05-12T05:13:23.831Z,3948
2017-05-12T05:14:34.038Z,3984
2017-05-12T05:15:44.303Z,3952
2017-05-12T05:16:54.247Z,3944
2017-05-12T05:18:04.201Z,3944
2017-05-12T05:19:14.503Z,3844
2017-05-12T05:20:24.762Z,3800
2017-05-12T05:21:34.715Z,3760
2017-05-12T05:22:44.979Z,3728
2017-05-12T05:23:55.456Z,3652
2017-05-12T05:25:05.727Z,3616
2017-05-12T05:26:16.520Z,3532
2017-05-12T05:27:26.788Z,3480
2017-05-12T05:28:37.039Z,3440
2017-05-12T05:29:47.294Z,3404
2017-05-12T05:30:57.553Z,3336
2017-05-12T05:32:08.168Z,3264
2017-05-12T05:33:18.119Z,3260
2017-05-12T05:34:28.385Z,3284
2017-05-12T05:35:38.649Z,3356
2017-05-12T05:36:48.907Z,3508
2017-05-12T05:37:59.078Z,3756
2017-05-12T05:39:09.343Z,4036
2017-05-12T05:40:19.290Z,4060
2017-05-12T05:41:29.551Z,4072
2017-05-12T05:42:39.810Z,4036
2017-05-12T05:43:50.013Z,4064
2017-05-12T05:45:00.278Z,4304
2017-05-12T05:46:10.539Z,4288
2017-05-12T05:47:20.179Z,4568
2017-05-12T05:48:30.442Z,4680
2017-05-12T05:49:40.692Z,4812
2017-05-12T05:50:50.957Z,5124
2017-05-12T05:52:00.911Z,4852
2017-05-12T05:53:10.855Z,4644
2017-05-12T05:54:20.803Z,4772
2017-05-12T05:55:31.312Z,4652
2017-05-12T05:56:41.292Z,4492
2017-05-12T05:57:51.552Z,4512
2017-05-12T05:59:01.494Z,4668
2017-05-12T06:00:11.805Z,4848
2017-05-12T06:01:22.016Z,5092
2017-05-12T06:02:31.964Z,5124
2017-05-12T06:03:41.998Z,5080
2017-05-12T06:04:52.255Z,5200
2017-05-12T06:06:02.519Z,5352
2017-05-12T06:07:13.038Z,5580
2017-05-12T06:08:23.307Z,6056
2017-05-12T06:09:33.251Z,6736
2017-05-12T06:10:43.517Z,7468
2017-05-12T06:11:53.154Z,7752
2017-05-12T06:13:03.668Z,7436
2017-05-12T06:14:13.655Z,6352
2017-05-12T06:15:23.932Z,5656
2017-05-12T06:16:33.889Z,5248
2017-05-12T06:17:44.156Z,5104
2017-05-12T06:18:56.736Z,4980
2017-05-12T06:20:06.688Z,4792
2017-05-12T06:21:16.947Z,4676
2017-05-12T06:22:27.207Z,4628
2017-05-12T06:23:37.169Z,4692
2017-05-12T06:24:47.431Z,4740
2017-05-12T06:25:57.697Z,4776
2017-05-12T06:27:08.007Z,4924
2017-05-12T06:28:17.955Z,4756
2017-05-12T06:29:27.903Z,4900
2017-05-12T06:30:38.363Z,4844
2017-05-12T06:31:48.626Z,4820
2017-05-12T06:32:58.902Z,4776
2017-05-12T06:34:09.165Z,4764
2017-05-12T06:35:18.796Z,4820
2017-05-12T06:36:29.048Z,4756
2017-05-12T06:37:39.310Z,4764
2017-05-12T06:38:49.578Z,4900
2017-05-12T06:39:59.841Z,5192
2017-05-12T06:41:09.795Z,5408
2017-05-12T06:42:19.682Z,5372
2017-05-12T06:43:29.954Z,5324
2017-05-12T06:44:40.216Z,5352
2017-05-12T06:45:50.160Z,5440
2017-05-12T06:47:00.109Z,5280
2017-05-12T06:48:10.367Z,5204
2017-05-12T06:49:20.632Z,5104
2017-05-12T06:50:30.912Z,5160
2017-05-12T06:51:40.861Z,4984
2017-05-12T06:52:51.123Z,4868
2017-05-12T06:54:01.642Z,4780
2017-05-12T06:55:11.900Z,4636
2017-05-12T06:56:21.857Z,4476
2017-05-12T06:57:31.874Z,4432
2017-05-12T06:58:42.140Z,4288
2017-05-12T06:59:52.704Z,4092
2017-05-12T07:01:02.978Z,3964
2017-05-12T07:02:13.243Z,3860
2017-05-12T07:03:22.886Z,3792
2017-05-12T07:04:33.149Z,3756
2017-05-12T07:05:43.720Z,3732
2017-05-12T07:06:53.991Z,3716
2017-05-12T07:08:04.261Z,3672
2017-05-12T07:09:13.897Z,3700
2017-05-12T07:10:23.847Z,3732
2017-05-12T07:11:34.367Z,3768
2017-05-12T07:12:44.649Z,3776
2017-05-12T07:13:54.600Z,3744
2017-05-12T07:15:04.873Z,3736
2017-05-12T07:16:15.130Z,3732
2017-05-12T07:17:28.598Z,3732
2017-05-12T07:18:38.910Z,3736
2017-05-12T07:19:49.178Z,3744
2017-05-12T07:20:59.119Z,3744
2017-05-12T07:22:09.386Z,3760
2017-05-12T07:23:20.001Z,3776
2017-05-12T07:24:29.949Z,3780
2017-05-12T07:25:40.207Z,3780
2017-05-12T07:26:50.464Z,3796
2017-05-12T07:28:00.104Z,3804
2017-05-12T07:29:10.302Z,3812
2017-05-12T07:30:20.250Z,3816
2017-05-12T07:31:30.511Z,3820
2017-05-12T07:32:40.783Z,3832
2017-05-12T07:33:51.039Z,3844
2017-05-12T07:35:01.608Z,3860
2017-05-12T07:36:11.561Z,3884
2017-05-12T07:37:21.524Z,3904
2017-05-12T07:38:31.468Z,3928
2017-05-12T07:39:41.417Z,3948
2017-05-12T07:40:51.930Z,3960
2017-05-12T07:42:02.197Z,3960
2017-05-12T07:43:12.458Z,3968
2017-05-12T07:44:22.417Z,3984
2017-05-12T07:45:32.725Z,3992
2017-05-12T07:46:43.240Z,4008
2017-05-12T07:47:53.186Z,4012
2017-05-12T07:49:03.448Z,4028
2017-05-12T07:50:13.399Z,4040
2017-05-12T07:51:23.346Z,4052
2017-05-12T07:52:33.909Z,4056
2017-05-12T07:53:43.857Z,4060
2017-05-12T07:54:54.120Z,4068
2017-05-12T07:56:04.384Z,4084
2017-05-12T07:57:14.029Z,4112
2017-05-12T07:58:24.284Z,4132
2017-05-12T07:59:34.238Z,4136
2017-05-12T08:00:44.182Z,4144
2017-05-12T08:01:54.439Z,4176
2017-05-12T08:03:04.387Z,4204
2017-05-12T08:04:17.036Z,4240
2017-05-12T08:05:26.991Z,4276
2017-05-12T08:06:37.261Z,4276
2017-05-12T08:07:47.529Z,4312
2017-05-12T08:08:57.482Z,4360
2017-05-12T08:10:07.998Z,4348
2017-05-12T08:11:18.267Z,4320
2017-05-12T08:12:28.212Z,4300
2017-05-12T08:13:38.475Z,4300
2017-05-12T08:14:48.743Z,4324
2017-05-12T08:15:59.305Z,4328
2017-05-12T08:17:09.580Z,4340
2017-05-12T08:18:19.262Z,4368
2017-05-12T08:19:29.522Z,4384
2017-05-12T08:20:39.478Z,4388
2017-05-12T08:21:49.994Z,4420
2017-05-12T08:23:00.264Z,4460
2017-05-12T08:24:10.528Z,4492
2017-05-12T08:25:20.477Z,4512
2017-05-12T08:26:30.120Z,4528
2017-05-12T08:27:40.632Z,4548
2017-05-12T08:28:50.911Z,4584
2017-05-12T08:30:00.541Z,4612
2017-05-12T08:31:10.175Z,4692
2017-05-12T08:32:20.438Z,4780
2017-05-12T08:33:30.897Z,4832
2017-05-12T08:34:41.218Z,4936
2017-05-12T08:35:51.478Z,5084
2017-05-12T08:37:01.122Z,4788
2017-05-12T08:38:11.064Z,5116
2017-05-12T08:39:21.627Z,4472
2017-05-12T08:40:31.574Z,4816
2017-05-12T08:41:41.838Z,5424
2017-05-12T08:42:52.105Z,5664
2017-05-12T08:44:02.076Z,6164
2017-05-12T08:45:12.637Z,6216
2017-05-12T08:46:22.585Z,6460
2017-05-12T08:47:32.844Z,6816
2017-05-12T08:48:42.794Z,7008
2017-05-12T08:49:53.059Z,6756
2017-05-12T08:51:02.941Z,6492
2017-05-12T08:52:13.216Z,6612
2017-05-12T08:53:22.855Z,6324
2017-05-12T08:54:32.805Z,6352
2017-05-12T08:55:43.074Z,7032
2017-05-12T08:56:53.405Z,7588
2017-05-12T08:58:03.673Z,8644
2017-05-12T08:59:13.614Z,8868
2017-05-12T09:00:23.256Z,8896
2017-05-12T09:01:33.205Z,9012
2017-05-12T09:02:43.380Z,8828
2017-05-12T09:03:53.650Z,9784
2017-05-12T09:05:03.607Z,11804
2017-05-12T09:06:13.562Z,12780
2017-05-12T09:07:23.520Z,13232
2017-05-12T09:08:34.028Z,13500
2017-05-12T09:09:44.292Z,14116
2017-05-12T09:10:54.255Z,14096
2017-05-12T09:12:04.205Z,14356
2017-05-12T09:13:14.468Z,13588
2017-05-12T09:14:24.719Z,13800
2017-05-12T09:15:34.992Z,14188
2017-05-12T09:16:44.938Z,14160
2017-05-12T09:17:55.198Z,13488
2017-05-12T09:19:05.459Z,13676
2017-05-12T09:20:15.661Z,13508
2017-05-12T09:21:25.611Z,13768
2017-05-12T09:22:35.570Z,14572
2017-05-12T09:23:45.836Z,15060
2017-05-12T09:24:56.103Z,15348
2017-05-12T09:26:06.675Z,15576
2017-05-12T09:27:16.633Z,15556
2017-05-12T09:28:26.896Z,15628
2017-05-12T09:29:37.160Z,16056
2017-05-12T09:30:47.426Z,16608
2017-05-12T09:31:57.951Z,16896
2017-05-12T09:33:08.262Z,16800
2017-05-12T09:34:17.904Z,16232
2017-05-12T09:35:28.173Z,16020
2017-05-12T09:36:38.438Z,16544
2017-05-12T09:37:49.057Z,16928
2017-05-12T09:38:59.332Z,17344
2017-05-12T09:40:09.603Z,18368
2017-05-12T09:41:19.870Z,17536
2017-05-12T09:42:30.140Z,17504
2017-05-12T09:43:40.748Z,16928
2017-05-12T09:44:51.017Z,16448
2017-05-12T09:46:01.280Z,15676
2017-05-12T09:47:11.238Z,15008
2017-05-12T09:48:21.520Z,14768
2017-05-12T09:49:31.773Z,14628
2017-05-12T09:50:41.725Z,15028
2017-05-12T09:51:51.706Z,15336
2017-05-12T09:53:01.651Z,15600
2017-05-12T09:54:11.607Z,15552
2017-05-12T09:55:24.340Z,15624
2017-05-12T09:56:34.318Z,15936
2017-05-12T09:57:44.604Z,16272
2017-05-12T09:58:54.873Z,15992
2017-05-12T10:00:05.135Z,15832
2017-05-12T10:01:15.602Z,16544
2017-05-12T10:02:25.243Z,17632
2017-05-12T10:03:35.200Z,17184
2017-05-12T10:04:45.178Z,16544
2017-05-12T10:05:55.445Z,15756
2017-05-12T10:07:05.335Z,15888
2017-05-12T10:08:15.603Z,16800
2017-05-12T10:09:25.557Z,17440
2017-05-12T10:10:35.832Z,18272
2017-05-12T10:11:45.789Z,19232
2017-05-12T10:12:56.309Z,20480
2017-05-12T10:14:06.574Z,20096
2017-05-12T10:15:16.885Z,20128
2017-05-12T10:16:26.842Z,20288
2017-05-12T10:17:37.105Z,20544
2017-05-12T10:18:47.720Z,20832
2017-05-12T10:19:57.667Z,20832
2017-05-12T10:21:07.953Z,20928
2017-05-12T10:22:17.915Z,20864
2017-05-12T10:23:27.869Z,21024
2017-05-12T10:24:38.432Z,21344
2017-05-12T10:25:48.394Z,21472
2017-05-12T10:26:58.667Z,21152
2017-05-12T10:28:08.933Z,20864
2017-05-12T10:29:18.889Z,20768
2017-05-12T10:30:29.457Z,20672
2017-05-12T10:31:39.728Z,20544
2017-05-12T10:32:49.366Z,20576
2017-05-12T10:33:59.636Z,20288
2017-05-12T10:35:09.600Z,20224
2017-05-12T10:36:20.067Z,20416
2017-05-12T10:37:30.336Z,20704
2017-05-12T10:38:40.642Z,21216
2017-05-12T10:39:50.635Z,21856
2017-05-12T10:41:00.905Z,22464
2017-05-12T10:42:11.370Z,22720
2017-05-12T10:43:21.327Z,23456
2017-05-12T10:44:31.591Z,23104
2017-05-12T10:45:41.851Z,22432
2017-05-12T10:46:51.812Z,22304
2017-05-12T10:48:02.122Z,21696
2017-05-12T10:49:12.394Z,20640
2017-05-12T10:50:22.665Z,20288
2017-05-12T10:51:32.929Z,19328
2017-05-12T10:52:43.208Z,18784
2017-05-12T10:53:53.784Z,18656
2017-05-12T10:55:03.749Z,18720
2017-05-12T10:56:14.023Z,17856
2017-05-12T10:57:23.980Z,16896
2017-05-12T10:58:34.251Z,15948
2017-05-12T10:59:44.239Z,15492
2017-05-12T11:00:54.510Z,14808
2017-05-12T11:02:04.778Z,14472
2017-05-12T11:03:15.048Z,14732
2017-05-12T11:04:25.009Z,15032
2017-05-12T11:05:35.575Z,16048
2017-05-12T11:06:45.840Z,17440
2017-05-12T11:07:56.108Z,18880
2017-05-12T11:09:06.375Z,20320
2017-05-12T11:10:16.323Z,19392
2017-05-12T11:11:26.481Z,19008
2017-05-12T11:12:36.746Z,17888
2017-05-12T11:13:47.041Z,16832
2017-05-12T11:14:57.314Z,16040
2017-05-12T11:16:07.585Z,14620
2017-05-12T11:17:17.525Z,13744
2017-05-12T11:18:27.482Z,14684
2017-05-12T11:19:37.445Z,14920
2017-05-12T11:20:47.709Z,13044
2017-05-12T11:21:58.007Z,12848
2017-05-12T11:23:11.750Z,13056
2017-05-12T11:24:21.708Z,13752
2017-05-12T11:25:31.665Z,14900
2017-05-12T11:26:41.930Z,16800
2017-05-12T11:27:51.884Z,16864
2017-05-12T11:29:02.505Z,16928
2017-05-12T11:30:12.471Z,16672
2017-05-12T11:31:22.739Z,15404
2017-05-12T11:32:32.701Z,15176
2017-05-12T11:33:42.660Z,15824
2017-05-12T11:34:53.185Z,16416
2017-05-12T11:36:03.460Z,16832
2017-05-12T11:37:13.412Z,17088
2017-05-12T11:38:23.691Z,19968
2017-05-12T11:39:33.967Z,37088
2017-05-12T11:40:44.226Z,25664
2017-05-12T11:41:54.504Z,21056
2017-05-12T11:43:04.799Z,18656
2017-05-12T11:44:15.064Z,18944
2017-05-12T11:45:25.017Z,20160
2017-05-12T11:46:35.278Z,17632
2017-05-12T11:47:45.589Z,17248
2017-05-12T11:48:55.540Z,17152
2017-05-12T11:50:05.818Z,17152
2017-05-12T11:51:15.776Z,17568
2017-05-12T11:52:25.976Z,18496
2017-05-12T11:53:36.246Z,21120
2017-05-12T11:54:46.509Z,22112
2017-05-12T11:55:56.778Z,28320
2017-05-12T11:57:07.050Z,27040
2017-05-12T11:58:17.352Z,26688
2017-05-12T11:59:27.323Z,28864
2017-05-12T12:00:37.280Z,34176
2017-05-12T12:01:47.550Z,79680
2017-05-12T12:02:57.819Z,52192
2017-05-12T12:04:08.022Z,58656
2017-05-12T12:05:18.293Z,46912
2017-05-12T12:06:28.250Z,54272
2017-05-12T12:07:38.525Z,85376
2017-05-12T12:08:48.800Z,61088
2017-05-12T12:09:58.744Z,44832
2017-05-12T12:11:09.014Z,52640
2017-05-12T12:12:19.290Z,30720
2017-05-12T12:13:29.564Z,35072
2017-05-12T12:14:39.849Z,26880
2017-05-12T12:15:50.053Z,93536
2017-05-12T12:17:00.334Z,85920
2017-05-12T12:18:10.613Z,99040
2017-05-12T12:19:20.566Z,98848
2017-05-12T12:20:30.841Z,76832
2017-05-12T12:21:41.372Z,71584
2017-05-12T12:22:51.659Z,24960
2017-05-12T12:24:01.936Z,39360
2017-05-12T12:25:12.215Z,40608
2017-05-12T12:26:22.491Z,40768
2017-05-12T12:27:33.117Z,95008
2017-05-12T12:28:43.078Z,75552
2017-05-12T12:29:53.357Z,30048
2017-05-12T12:31:03.634Z,38240
2017-05-12T12:32:13.598Z,26112
2017-05-12T12:33:26.121Z,85312
2017-05-12T12:34:36.397Z,72800
2017-05-12T12:35:46.721Z,94240
2017-05-12T12:36:56.689Z,36032
2017-05-12T12:38:06.965Z,47296
2017-05-12T12:39:17.550Z,59040
2017-05-12T12:40:27.517Z,34400
2017-05-12T12:41:37.164Z,29504
2017-05-12T12:42:47.128Z,24512
2017-05-12T12:43:57.409Z,22176
2017-05-12T12:45:07.946Z,22176
2017-05-12T12:46:17.597Z,30752
2017-05-12T12:47:27.877Z,38016
2017-05-12T12:48:38.155Z,32544
2017-05-12T12:49:48.118Z,26144
2017-05-12T12:51:00.597Z,38048
2017-05-12T12:52:10.870Z,28352
2017-05-12T12:53:21.147Z,33344
2017-05-12T12:54:31.456Z,89920
2017-05-12T12:55:41.427Z,43488
2017-05-12T12:56:52.011Z,92704
2017-05-12T12:58:02.334Z,92736
2017-05-12T12:59:12.614Z,88224
2017-05-12T13:00:22.615Z,76864
2017-05-12T13:01:32.897Z,75104
2017-05-12T13:02:43.106Z,64256
2017-05-12T13:03:53.076Z,44160
2017-05-12T13:05:03.348Z,44320
2017-05-12T13:06:13.313Z,42080
2017-05-12T13:07:23.285Z,95200
2017-05-12T13:08:33.914Z,47104
2017-05-12T13:09:44.236Z,35424
2017-05-12T13:10:54.512Z,38304
2017-05-12T13:12:04.482Z,98560
2017-05-12T13:13:14.764Z,72160
2017-05-12T13:14:25.291Z,89952
2017-05-12T13:15:35.573Z,95616
2017-05-12T13:16:45.852Z,79232
2017-05-12T13:17:55.822Z,99328
2017-05-12T13:19:06.103Z,96096
2017-05-12T13:20:16.327Z,93952
2017-05-12T13:21:26.607Z,34176
2017-05-12T13:22:36.584Z,63840
2017-05-12T13:23:46.546Z,31392
2017-05-12T13:24:56.828Z,35072
2017-05-12T13:26:08.995Z,40512
2017-05-12T13:27:19.282Z,29472
2017-05-12T13:28:29.574Z,32480
2017-05-12T13:29:39.540Z,26912
2017-05-12T13:30:49.820Z,25088
2017-05-12T13:32:00.403Z,23936
2017-05-12T13:33:10.369Z,22368
2017-05-12T13:34:20.334Z,20832
2017-05-12T13:35:30.308Z,19904
2017-05-12T13:36:40.587Z,19584
2017-05-12T13:37:51.062Z,21888
2017-05-12T13:39:01.335Z,22688
2017-05-12T13:40:11.613Z,22720
2017-05-12T13:41:21.573Z,25696
2017-05-12T13:42:31.847Z,25888
2017-05-12T13:43:42.424Z,23968
2017-05-12T13:44:52.702Z,22688
2017-05-12T13:46:02.981Z,22880
2017-05-12T13:47:13.256Z,24992
2017-05-12T13:48:23.220Z,32800
2017-05-12T13:49:33.743Z,52896
2017-05-12T13:50:44.033Z,39488
2017-05-12T13:51:53.991Z,39328
2017-05-12T13:53:04.269Z,37472
2017-05-12T13:54:14.551Z,45568
2017-05-12T13:55:24.863Z,35488
2017-05-12T13:56:34.829Z,33664
2017-05-12T13:57:45.106Z,34656
2017-05-12T13:58:55.393Z,69376
2017-05-12T14:00:05.041Z,37088
2017-05-12T14:01:15.308Z,45152
2017-05-12T14:02:25.272Z,52288
2017-05-12T14:03:35.555Z,42688
2017-05-12T14:04:45.530Z,28224
2017-05-12T14:05:55.489Z,30400
2017-05-12T14:07:06.017Z,40672
2017-05-12T14:08:15.661Z,81632
2017-05-12T14:09:25.619Z,97408
2017-05-12T14:10:35.898Z,86880
2017-05-12T14:11:45.863Z,82144
2017-05-12T14:12:56.388Z,43264
2017-05-12T14:14:06.663Z,32640
2017-05-12T14:15:16.631Z,38240
2017-05-12T14:16:26.902Z,38400
2017-05-12T14:17:37.176Z,69152
2017-05-12T14:18:49.766Z,68864
2017-05-12T14:20:00.046Z,65248
2017-05-12T14:21:10.021Z,66528
2017-05-12T14:22:19.682Z,53824
2017-05-12T14:23:29.964Z,59488
2017-05-12T14:24:39.864Z,56704
2017-05-12T14:25:49.839Z,28288
2017-05-12T14:27:00.120Z,33472
2017-05-12T14:28:10.089Z,32512
2017-05-12T14:29:20.375Z,44256
2017-05-12T14:30:30.645Z,41024
2017-05-12T14:31:40.622Z,71328
2017-05-12T14:32:50.588Z,66720
2017-05-12T14:34:00.865Z,74336
2017-05-12T14:35:11.141Z,79776
2017-05-12T14:36:21.353Z,62240
2017-05-12T14:37:31.638Z,91904
2017-05-12T14:38:41.607Z,89312
2017-05-12T14:39:51.577Z,80160
2017-05-12T14:41:01.545Z,80288
2017-05-12T14:42:11.870Z,82976
2017-05-12T14:43:22.155Z,92448
2017-05-12T14:44:32.437Z,91424
2017-05-12T14:45:42.719Z,95520
2017-05-12T14:46:53.001Z,94144
2017-05-12T14:48:03.217Z,101504
2017-05-12T14:49:12.872Z,100320
2017-05-12T14:50:23.151Z,90752
2017-05-12T14:51:33.118Z,95680
2017-05-12T14:52:43.404Z,95392
2017-05-12T14:53:53.996Z,40128
2017-05-12T14:55:04.283Z,39040
2017-05-12T14:56:14.563Z,31840
2017-05-12T14:57:24.534Z,24224
2017-05-12T14:58:34.505Z,93184
2017-05-12T14:59:44.669Z,29024
2017-05-12T15:00:54.960Z,28256
2017-05-12T15:02:04.617Z,23456
2017-05-12T15:03:14.897Z,20128
2017-05-12T15:04:25.180Z,20160
2017-05-12T15:05:35.448Z,26016
2017-05-12T15:06:45.730Z,31392
2017-05-12T15:07:55.697Z,42080
2017-05-12T15:09:06.024Z,21792
2017-05-12T15:10:15.680Z,18688
2017-05-12T15:11:26.218Z,18848
2017-05-12T15:12:36.500Z,17984
2017-05-12T15:13:46.778Z,17728
2017-05-12T15:14:57.058Z,18272
2017-05-12T15:16:07.338Z,18592
2017-05-12T15:17:17.650Z,19616
2017-05-12T15:18:27.928Z,19072
2017-05-12T15:19:37.897Z,64864
2017-05-12T15:20:48.173Z,19648
2017-05-12T15:21:58.139Z,19232
2017-05-12T15:23:08.716Z,19808
2017-05-12T15:24:18.991Z,17632
2017-05-12T15:25:29.271Z,17664
2017-05-12T15:26:39.230Z,18208
2017-05-12T15:27:49.201Z,19264
2017-05-12T15:28:59.730Z,21536
2017-05-12T15:30:09.690Z,30848
2017-05-12T15:31:19.670Z,35424
2017-05-12T15:32:29.937Z,35744
2017-05-12T15:33:40.212Z,21632
2017-05-12T15:34:50.744Z,53120
2017-05-12T15:36:00.713Z,29216
2017-05-12T15:37:10.989Z,41024
2017-05-12T15:38:21.262Z,26432
2017-05-12T15:39:31.539Z,63040